Grays Harbor City, Washington
Current Conditions -  °F | °C
As of 12:01 PM on Friday 24 Oct 2014 (Local Time) from KHQM Reporting Station
Scattered Clouds Scattered Clouds  
Wind Chill: 53°   Ceiling: Unl
Heat Index: 53°   Visibility: 7mi
Dew Point: 50°   Wind: 12mph
Humidity: 89%   Direction: 60°ENE
Pressure: 29.97"   Gusts: NA
Location:  47.0202°N, 123.878°W
Report Text: KHQM 241901Z AUTO 06010KT 7SM SCT010 12/10 A2997 RMK AO2 T01170100
Loading
Personal Weather Stations






























Interactive Weather Map
Tropical Storm Tracking
New forecast layout! Learn more

10-Day Weather Forecast

Advertisements
Track Severe Weather on mobile